Friday Harbor, WA

4:30 PM PST on December 25, 2014 (GMT -0800)
Ericson | Change Station
CLOSE
Current Station
Personal Weather Station
Location: Friday Harbor, WA
Elevation: 325 ft
Nearby Weather Stations

Elev 325 ft 48.54 °N, 123.07 °W | Updated 6 seconds ago

Mostly Cloudy
Mostly Cloudy
41.0 °F
Feels Like 41 °F
N
0.0
Wind Variable Wind from SSE
Gusts 0.0 mph

Today
High -- | Low -- °F
--% Chance of Precip.
Yesterday
High -- | Low -- °F
Precip. -- in
8:03 AM 4:21 PM
Waxing Crescent, 20% visible
Pressure 30.24 in
Visibility 10.0 miles
Clouds Mostly Cloudy 7000 ft
Windchill 41 °F
Dew Point 36 °F
Humidity 83%
Rainfall 0.00 in
Snow Depth Not available.
UV 0.0 out of 12
Pollen .50 out of 12
Air Quality Not available.
Flu Activity Not available.
METAR KFHR 252353Z AUTO 00000KT 10SM BKN070 06/02 A3024 RMK AO2 SLP239 T00610017 10094 20056 53012

More Conditions Fewer Conditions

Pressure 30.24 in
Visibility 10.0 miles
Clouds Mostly Cloudy 7000 ft
Windchill 41 °F
Dew Point 36 °F
Humidity 83%
Rainfall 0.00 in
Snow Depth Not available.
UV 0.0 out of 12
Pollen .50 out of 12
Air Quality Not available.
Flu Activity Not available.
METAR KFHR 252353Z AUTO 00000KT 10SM BKN070 06/02 A3024 RMK AO2 SLP239 T00610017 10094 20056 53012

More Conditions Fewer Conditions

10-Day Weather Forecast

Almanac

Astronomy

Dec. 25, 2014 Rise Set
Actual Time
Civil Twilight
Nautical Twilight
Astronomical Twilight
Moon
Length of Visible Light
Length of Day
Tomorrow will be .
, % of the Moon is Illuminated

Today's Extremes

State Highs State Lows

Community

WunderPhotos

Upload Photos

1,780,479 photos uploaded!

WunderBlogs® & News

Nearby

Air Quality

  Air Quality AQ Index Pollutant
Not available.

Snow Depth

Station Depth Elevation

Earthquake Activity

City Distance Mag. Time & Date
Minimum magnitude displayed is 2.5.

Coastal Water Temperatures

Place Temperature

Nearby Weather Stations